createdAt,value
2019-05-26T00:01:20.978Z,4.92
2019-05-26T00:03:53.793Z,5.70
2019-05-26T00:06:26.430Z,5.37
2019-05-26T00:08:58.757Z,5.78
2019-05-26T00:11:31.407Z,6.00
2019-05-26T00:14:03.740Z,6.72
2019-05-26T00:16:36.456Z,5.40
2019-05-26T00:19:09.508Z,5.25
2019-05-26T00:24:12.456Z,4.75
2019-05-26T00:26:45.088Z,5.25
2019-05-26T00:29:18.086Z,6.10
2019-05-26T00:31:50.856Z,5.95
2019-05-26T00:36:54.017Z,5.33
2019-05-26T00:39:26.384Z,5.90
2019-05-26T00:41:58.585Z,5.93
2019-05-26T00:44:31.583Z,6.00
2019-05-26T00:47:04.581Z,6.10
2019-05-26T00:49:36.354Z,5.42
2019-05-26T00:52:09.829Z,5.33
2019-05-26T00:54:42.915Z,6.45
2019-05-26T00:57:14.989Z,6.65
2019-05-26T00:59:47.802Z,6.80
2019-05-26T01:02:19.577Z,6.78
2019-05-26T01:04:52.306Z,5.75
2019-05-26T01:07:24.389Z,5.58
2019-05-26T01:09:56.531Z,6.57
2019-05-26T01:12:29.211Z,5.30
2019-05-26T01:15:01.680Z,5.42
2019-05-26T01:17:34.406Z,5.97
2019-05-26T01:20:07.177Z,6.08
2019-05-26T01:22:39.915Z,5.72
2019-05-26T01:25:12.455Z,6.00
2019-05-26T01:27:44.527Z,5.95
2019-05-26T01:30:20.048Z,6.50
2019-05-26T01:32:53.105Z,5.35
2019-05-26T01:35:25.788Z,6.47
2019-05-26T01:37:57.966Z,6.65
2019-05-26T01:40:43.238Z,6.00
2019-05-26T01:43:15.603Z,5.78
2019-05-26T01:45:48.033Z,6.87
2019-05-26T01:48:21.187Z,6.13
2019-05-26T01:50:54.447Z,5.95
2019-05-26T01:53:26.973Z,5.47
2019-05-26T01:55:59.529Z,5.37
2019-05-26T01:58:31.895Z,6.15
2019-05-26T02:01:04.028Z,6.00
2019-05-26T02:03:37.126Z,5.90
2019-05-26T02:06:09.474Z,5.08
2019-05-26T02:08:41.551Z,5.60
2019-05-26T02:11:14.230Z,4.87
2019-05-26T02:13:46.564Z,5.15
2019-05-26T02:16:19.290Z,5.87
2019-05-26T02:18:51.734Z,6.30
2019-05-26T02:21:24.543Z,5.10
2019-05-26T02:23:57.235Z,6.40
2019-05-26T02:26:30.108Z,6.22
2019-05-26T02:29:02.789Z,6.45
2019-05-26T02:31:35.732Z,6.08
2019-05-26T02:34:07.899Z,6.12
2019-05-26T02:36:39.975Z,6.47
2019-05-26T02:39:12.684Z,5.28
2019-05-26T02:41:44.935Z,5.62
2019-05-26T02:44:16.800Z,6.00
2019-05-26T02:46:49.802Z,6.08
2019-05-26T02:49:21.958Z,5.33
2019-05-26T02:51:54.463Z,5.97
2019-05-26T02:54:26.993Z,5.67
2019-05-26T02:56:59.172Z,6.10
2019-05-26T02:59:31.730Z,5.67
2019-05-26T03:02:04.944Z,5.65
2019-05-26T03:04:38.040Z,5.72
2019-05-26T03:07:12.778Z,5.75
2019-05-26T03:09:48.837Z,5.42
2019-05-26T03:12:25.186Z,6.45
2019-05-26T03:15:01.472Z,6.05
2019-05-26T03:17:37.461Z,6.90
2019-05-26T03:20:10.837Z,5.85
2019-05-26T03:25:18.418Z,5.37
2019-05-26T03:27:50.876Z,6.58
2019-05-26T03:30:23.441Z,6.12
2019-05-26T03:32:56.144Z,5.53
2019-05-26T03:35:29.242Z,5.72
2019-05-26T03:38:01.041Z,6.85
2019-05-26T03:40:33.807Z,6.60
2019-05-26T03:43:06.202Z,6.15
2019-05-26T03:46:18.451Z,7.12
2019-05-26T03:48:52.057Z,6.78
2019-05-26T03:51:24.412Z,6.92
2019-05-26T03:53:57.367Z,6.35
2019-05-26T03:56:30.091Z,6.72
2019-05-26T03:59:02.557Z,6.85
2019-05-26T04:01:34.999Z,5.05
2019-05-26T04:04:07.510Z,7.33
2019-05-26T04:06:40.394Z,7.03
2019-05-26T04:09:13.381Z,6.65
2019-05-26T04:11:45.685Z,7.30
2019-05-26T04:14:18.024Z,6.30
2019-05-26T04:16:50.034Z,7.00
2019-05-26T04:19:23.031Z,7.55
2019-05-26T04:21:55.338Z,6.53
2019-05-26T04:24:27.338Z,7.15
2019-05-26T04:26:59.936Z,7.67
2019-05-26T04:29:32.278Z,7.03
2019-05-26T04:32:04.420Z,8.17
2019-05-26T04:34:37.176Z,8.60
2019-05-26T04:37:09.995Z,7.97
2019-05-26T04:39:42.146Z,8.65
2019-05-26T04:42:14.018Z,4.63
2019-05-26T04:44:46.672Z,9.03
2019-05-26T04:47:19.375Z,7.62
2019-05-26T04:49:51.993Z,8.38
2019-05-26T04:52:24.077Z,8.45
2019-05-26T04:54:56.597Z,8.73
2019-05-26T04:57:29.390Z,9.53
2019-05-26T05:00:01.111Z,9.75
2019-05-26T05:02:33.422Z,9.83
2019-05-26T05:05:06.278Z,9.25
2019-05-26T05:07:38.416Z,7.55
2019-05-26T05:10:11.362Z,10.20
2019-05-26T05:12:44.000Z,10.88
2019-05-26T05:15:16.886Z,11.08
2019-05-26T05:17:49.323Z,11.65
2019-05-26T05:20:22.503Z,11.88
2019-05-26T05:25:25.656Z,10.30
2019-05-26T05:27:58.550Z,11.45
2019-05-26T05:30:30.684Z,12.35
2019-05-26T05:33:03.185Z,12.73
2019-05-26T05:35:35.624Z,12.93
2019-05-26T05:38:08.085Z,12.85
2019-05-26T05:40:40.452Z,10.65
2019-05-26T05:43:12.923Z,13.08
2019-05-26T05:45:45.013Z,12.47
2019-05-26T05:48:17.689Z,12.43
2019-05-26T05:50:49.881Z,12.25
2019-05-26T05:53:22.237Z,10.60
2019-05-26T05:55:54.983Z,12.40
2019-05-26T05:58:27.989Z,9.43
2019-05-26T06:01:00.431Z,9.00
2019-05-26T06:03:32.543Z,11.28
2019-05-26T06:06:05.859Z,11.18
2019-05-26T06:11:16.554Z,9.80
2019-05-26T06:13:43.131Z,10.23
2019-05-26T06:16:16.105Z,9.20
2019-05-26T06:18:48.164Z,9.33
2019-05-26T06:21:20.935Z,9.13
2019-05-26T06:23:53.991Z,9.13
2019-05-26T06:28:57.507Z,8.23
2019-05-26T06:31:29.595Z,7.67
2019-05-26T06:34:01.652Z,7.23
2019-05-26T06:36:34.034Z,6.95
2019-05-26T06:39:10.240Z,7.15
2019-05-26T06:41:42.641Z,7.25
2019-05-26T06:44:14.712Z,5.20
2019-05-26T06:46:47.049Z,3.70
2019-05-26T06:49:19.893Z,5.50
2019-05-26T06:51:53.141Z,5.43
2019-05-26T06:54:25.732Z,5.70
2019-05-26T06:56:58.705Z,6.20
2019-05-26T06:59:31.118Z,5.60
2019-05-26T07:02:03.580Z,4.90
2019-05-26T07:04:36.746Z,6.53
2019-05-26T07:07:09.237Z,6.37
2019-05-26T07:09:41.955Z,6.33
2019-05-26T07:12:14.481Z,6.40
2019-05-26T07:17:20.555Z,5.67
2019-05-26T07:19:51.251Z,5.63
2019-05-26T07:22:23.403Z,6.10
2019-05-26T07:24:56.360Z,6.00
2019-05-26T07:27:28.833Z,6.15
2019-05-26T07:30:00.928Z,6.30
2019-05-26T07:32:34.142Z,6.83
2019-05-26T07:35:07.298Z,7.63
2019-05-26T07:37:39.391Z,7.63
2019-05-26T07:40:12.221Z,7.67
2019-05-26T07:42:44.298Z,8.13
2019-05-26T07:45:17.507Z,6.47
2019-05-26T07:47:49.662Z,8.60
2019-05-26T07:50:22.458Z,7.55
2019-05-26T07:52:54.878Z,8.40
2019-05-26T07:57:58.229Z,8.43
2019-05-26T08:00:30.557Z,8.60
2019-05-26T08:05:34.068Z,7.60
2019-05-26T08:08:12.643Z,7.05
2019-05-26T08:10:41.167Z,8.45
2019-05-26T08:13:13.907Z,7.25
2019-05-26T08:15:46.352Z,6.65
2019-05-26T08:18:19.006Z,7.95
2019-05-26T08:20:51.754Z,7.33
2019-05-26T08:23:23.821Z,8.23
2019-05-26T08:25:56.659Z,6.70
2019-05-26T08:28:28.471Z,7.35
2019-05-26T08:31:01.083Z,6.55
2019-05-26T08:36:05.278Z,5.45
2019-05-26T08:38:37.873Z,6.33
2019-05-26T08:41:10.869Z,7.03
2019-05-26T08:43:44.264Z,5.80
2019-05-26T08:46:17.453Z,6.00
2019-05-26T08:48:50.274Z,6.23
2019-05-26T08:51:22.786Z,6.17
2019-05-26T08:56:26.117Z,5.45
2019-05-26T08:58:57.924Z,5.10
2019-05-26T09:01:31.290Z,4.37
2019-05-26T09:04:03.349Z,4.87
2019-05-26T09:06:37.215Z,4.22
2019-05-26T09:11:40.863Z,5.17
2019-05-26T09:14:13.225Z,5.08
2019-05-26T09:16:45.698Z,4.95
2019-05-26T09:19:17.419Z,3.98
2019-05-26T09:21:50.450Z,3.20
2019-05-26T09:24:22.770Z,2.87
2019-05-26T09:26:55.089Z,3.55
2019-05-26T09:29:27.183Z,3.98
2019-05-26T09:34:30.284Z,3.20
2019-05-26T09:37:02.996Z,3.15
2019-05-26T09:39:35.062Z,3.22
2019-05-26T09:44:38.718Z,2.90
2019-05-26T09:47:10.436Z,3.27
2019-05-26T09:49:43.063Z,2.90
2019-05-26T09:52:15.089Z,2.90
2019-05-26T09:57:18.868Z,2.35
2019-05-26T09:59:51.211Z,2.62
2019-05-26T10:02:23.329Z,2.20
2019-05-26T10:04:55.911Z,2.60
2019-05-26T10:07:27.630Z,2.45
2019-05-26T10:09:59.946Z,2.15
2019-05-26T10:12:33.006Z,2.90
2019-05-26T10:15:05.787Z,2.40
2019-05-26T10:17:38.186Z,2.43
2019-05-26T10:20:11.658Z,2.20
2019-05-26T10:22:44.314Z,2.20
2019-05-26T10:25:16.797Z,2.33
2019-05-26T10:27:50.149Z,2.43
2019-05-26T10:30:22.931Z,2.53
2019-05-26T10:32:55.725Z,2.63
2019-05-26T10:35:28.696Z,2.37
2019-05-26T10:38:01.448Z,2.80
2019-05-26T10:40:34.150Z,2.83
2019-05-26T10:43:07.180Z,2.47
2019-05-26T10:45:39.712Z,2.60
2019-05-26T10:48:12.140Z,2.77
2019-05-26T10:50:45.177Z,2.20
2019-05-26T10:53:17.254Z,2.57
2019-05-26T10:55:49.340Z,2.85
2019-05-26T10:58:22.122Z,2.55
2019-05-26T11:00:54.222Z,2.65
2019-05-26T11:03:26.957Z,2.30
2019-05-26T11:06:00.055Z,2.22
2019-05-26T11:08:33.745Z,2.30
2019-05-26T11:11:05.906Z,2.25
2019-05-26T11:13:40.617Z,2.05
2019-05-26T11:16:11.929Z,2.05
2019-05-26T11:18:44.455Z,2.20
2019-05-26T11:21:16.444Z,2.83
2019-05-26T11:23:48.507Z,2.33
2019-05-26T11:26:20.709Z,2.20
2019-05-26T11:28:53.841Z,2.12
2019-05-26T11:31:26.934Z,2.33
2019-05-26T11:33:59.423Z,2.15
2019-05-26T11:36:31.206Z,2.45
2019-05-26T11:39:03.168Z,2.33
2019-05-26T11:41:35.850Z,2.75
2019-05-26T11:44:17.580Z,2.20
2019-05-26T11:46:42.339Z,2.50
2019-05-26T11:49:14.615Z,2.40
2019-05-26T11:51:47.114Z,2.17
2019-05-26T11:54:20.014Z,2.40
2019-05-26T11:56:52.387Z,2.40
2019-05-26T11:59:24.183Z,2.20
2019-05-26T12:01:56.365Z,2.35
2019-05-26T12:04:29.773Z,2.52
2019-05-26T12:07:04.478Z,2.10
2019-05-26T12:09:36.955Z,2.00
2019-05-26T12:12:09.124Z,1.90
2019-05-26T12:14:41.063Z,2.45
2019-05-26T12:17:13.434Z,2.20
2019-05-26T12:19:45.498Z,2.47
2019-05-26T12:22:17.567Z,2.22
2019-05-26T12:24:49.294Z,2.08
2019-05-26T12:27:21.438Z,2.10
2019-05-26T12:32:24.375Z,2.40
2019-05-26T12:37:27.542Z,2.30
2019-05-26T12:40:00.424Z,2.50
2019-05-26T12:42:33.402Z,1.97
2019-05-26T12:45:08.735Z,2.50
2019-05-26T12:47:40.857Z,2.00
2019-05-26T12:50:14.202Z,2.30
2019-05-26T12:52:46.721Z,1.85
2019-05-26T12:55:19.501Z,2.77
2019-05-26T12:57:51.902Z,2.33
2019-05-26T13:00:25.568Z,2.08
2019-05-26T13:02:57.797Z,2.50
2019-05-26T13:05:30.386Z,1.90
2019-05-26T13:08:02.760Z,2.10
2019-05-26T13:10:35.452Z,2.10
2019-05-26T13:13:08.147Z,2.10
2019-05-26T13:15:40.819Z,2.53
2019-05-26T13:18:13.503Z,2.10
2019-05-26T13:20:46.823Z,2.03
2019-05-26T13:23:19.777Z,1.83
2019-05-26T13:25:53.156Z,2.23
2019-05-26T13:28:26.048Z,2.00
2019-05-26T13:30:58.578Z,1.87
2019-05-26T13:33:31.009Z,1.60
2019-05-26T13:36:03.794Z,1.90
2019-05-26T13:38:36.435Z,1.98
2019-05-26T13:41:08.751Z,1.90
2019-05-26T13:43:41.414Z,1.60
2019-05-26T13:46:14.713Z,2.30
2019-05-26T13:48:47.381Z,2.10
2019-05-26T13:51:20.161Z,1.90
2019-05-26T13:53:52.638Z,3.17
2019-05-26T13:56:25.017Z,1.92
2019-05-26T13:58:57.212Z,1.85
2019-05-26T14:01:29.876Z,1.98
2019-05-26T14:04:02.124Z,1.70
2019-05-26T14:06:34.707Z,1.95
2019-05-26T14:09:10.576Z,1.90
2019-05-26T14:11:42.672Z,1.80
2019-05-26T14:14:14.947Z,1.65
2019-05-26T14:16:49.316Z,1.60
2019-05-26T14:19:23.195Z,1.57
2019-05-26T14:21:55.489Z,1.43
2019-05-26T14:24:27.661Z,1.60
2019-05-26T14:27:00.129Z,1.87
2019-05-26T14:29:32.702Z,1.80
2019-05-26T14:32:05.121Z,1.32
2019-05-26T14:34:37.502Z,1.77
2019-05-26T14:37:10.343Z,1.75
2019-05-26T14:39:42.398Z,1.47
2019-05-26T14:42:14.604Z,1.77
2019-05-26T14:44:46.969Z,1.75
2019-05-26T14:47:18.923Z,2.20
2019-05-26T14:49:51.279Z,1.42
2019-05-26T14:52:23.171Z,1.80
2019-05-26T14:57:26.495Z,1.50
2019-05-26T15:02:30.079Z,1.92
2019-05-26T15:05:02.215Z,1.35
2019-05-26T15:07:34.738Z,1.30
2019-05-26T15:10:07.234Z,1.80
2019-05-26T15:12:40.275Z,1.60
2019-05-26T15:15:12.694Z,1.85
2019-05-26T15:17:45.159Z,1.57
2019-05-26T15:20:17.373Z,1.80
2019-05-26T15:22:49.269Z,1.60
2019-05-26T15:25:21.411Z,1.50
2019-05-26T15:27:53.941Z,1.85
2019-05-26T15:30:25.759Z,1.62
2019-05-26T15:35:29.192Z,1.80
2019-05-26T15:38:02.081Z,1.60
2019-05-26T15:40:34.469Z,1.90
2019-05-26T15:43:07.011Z,2.50
2019-05-26T15:45:39.076Z,2.33
2019-05-26T15:48:12.374Z,2.80
2019-05-26T15:50:45.456Z,18.73
2019-05-26T15:53:18.201Z,3.85
2019-05-26T15:55:50.711Z,3.35
2019-05-26T15:58:23.014Z,9.98
2019-05-26T16:00:56.143Z,5.43
2019-05-26T16:03:28.589Z,3.20
2019-05-26T16:06:01.018Z,2.70
2019-05-26T16:08:33.455Z,2.27
2019-05-26T16:11:05.928Z,2.27
2019-05-26T16:13:38.981Z,1.60
2019-05-26T16:16:12.007Z,1.60
2019-05-26T16:18:45.571Z,1.80
2019-05-26T16:21:27.646Z,1.67
2019-05-26T16:23:51.458Z,1.62
2019-05-26T16:28:55.209Z,1.90
2019-05-26T16:31:29.149Z,1.77
2019-05-26T16:34:02.156Z,1.40
2019-05-26T16:36:34.935Z,1.47
2019-05-26T16:39:09.498Z,1.80
2019-05-26T16:41:41.735Z,1.82
2019-05-26T16:44:13.808Z,2.50
2019-05-26T16:46:55.946Z,3.50
2019-05-26T16:49:21.268Z,3.35
2019-05-26T16:51:54.182Z,2.75
2019-05-26T16:54:26.239Z,2.00
2019-05-26T16:56:58.640Z,2.08
2019-05-26T16:59:30.949Z,1.90
2019-05-26T17:02:03.602Z,2.02
2019-05-26T17:04:36.399Z,1.75
2019-05-26T17:07:08.188Z,1.35
2019-05-26T17:12:11.955Z,1.83
2019-05-26T17:14:44.647Z,1.77
2019-05-26T17:17:16.722Z,1.62
2019-05-26T17:19:52.593Z,2.05
2019-05-26T17:22:23.294Z,2.58
2019-05-26T17:24:59.843Z,1.90
2019-05-26T17:27:31.393Z,1.67
2019-05-26T17:30:03.670Z,1.80
2019-05-26T17:35:06.858Z,2.17
2019-05-26T17:37:39.265Z,1.50
2019-05-26T17:42:42.730Z,1.50
2019-05-26T17:47:48.058Z,1.70
2019-05-26T17:50:20.246Z,1.80
2019-05-26T17:55:24.131Z,1.95
2019-05-26T17:57:56.897Z,1.97
2019-05-26T18:00:29.347Z,2.20
2019-05-26T18:03:02.009Z,2.10
2019-05-26T18:05:34.982Z,1.75
2019-05-26T18:08:07.779Z,1.65
2019-05-26T18:10:40.194Z,1.98
2019-05-26T18:13:13.803Z,2.15
2019-05-26T18:15:47.635Z,1.52
2019-05-26T18:18:20.264Z,1.87
2019-05-26T18:20:52.669Z,1.62
2019-05-26T18:23:24.788Z,1.60
2019-05-26T18:25:57.616Z,1.50
2019-05-26T18:28:31.162Z,1.73
2019-05-26T18:31:03.822Z,1.43
2019-05-26T18:36:07.302Z,1.50
2019-05-26T18:38:40.914Z,1.35
2019-05-26T18:41:16.738Z,1.50
2019-05-26T18:43:48.815Z,1.83
2019-05-26T18:46:21.298Z,1.77
2019-05-26T18:48:53.755Z,1.50
2019-05-26T18:51:28.324Z,1.80
2019-05-26T18:54:03.827Z,1.97
2019-05-26T18:56:39.589Z,1.80
2019-05-26T18:59:12.574Z,1.60
2019-05-26T19:01:44.637Z,1.77
2019-05-26T19:04:17.031Z,1.67
2019-05-26T19:06:49.682Z,2.15
2019-05-26T19:09:21.575Z,1.62
2019-05-26T19:11:54.883Z,1.60
2019-05-26T19:14:30.873Z,1.80
2019-05-26T19:17:02.659Z,1.57
2019-05-26T19:19:36.071Z,1.80
2019-05-26T19:22:10.485Z,1.70
2019-05-26T19:24:43.204Z,1.73
2019-05-26T19:27:15.081Z,2.05
2019-05-26T19:29:47.814Z,1.77
2019-05-26T19:34:54.762Z,1.42
2019-05-26T19:37:27.868Z,2.00
2019-05-26T19:40:00.689Z,1.80
2019-05-26T19:45:04.070Z,1.95
2019-05-26T19:47:36.812Z,2.08
2019-05-26T19:50:10.227Z,1.90
2019-05-26T19:52:42.790Z,2.20
2019-05-26T19:55:15.786Z,2.50
2019-05-26T19:57:48.414Z,2.07
2019-05-26T20:00:21.884Z,1.90
2019-05-26T20:02:54.781Z,2.00
2019-05-26T20:08:19.280Z,1.80
2019-05-26T20:10:51.659Z,2.00
2019-05-26T20:13:24.276Z,1.85
2019-05-26T20:15:57.658Z,1.80
2019-05-26T20:18:30.465Z,1.80
2019-05-26T20:21:03.125Z,2.47
2019-05-26T20:26:06.404Z,2.20
2019-05-26T20:28:39.378Z,2.17
2019-05-26T20:31:12.116Z,2.30
2019-05-26T20:33:44.880Z,2.52
2019-05-26T20:36:17.533Z,2.30
2019-05-26T20:38:51.180Z,2.52
2019-05-26T20:41:23.884Z,2.30
2019-05-26T20:43:56.748Z,2.92
2019-05-26T20:46:28.934Z,2.27
2019-05-26T20:49:01.727Z,2.27
2019-05-26T20:51:34.419Z,3.00
2019-05-26T20:56:39.101Z,2.10
2019-05-26T20:59:12.248Z,2.58
2019-05-26T21:01:44.551Z,2.70
2019-05-26T21:04:17.238Z,2.25
2019-05-26T21:06:50.086Z,2.52
2019-05-26T21:09:25.363Z,2.72
2019-05-26T21:11:58.329Z,2.80
2019-05-26T21:14:30.850Z,2.90
2019-05-26T21:17:04.091Z,3.45
2019-05-26T21:19:37.069Z,3.08
2019-05-26T21:22:09.378Z,3.20
2019-05-26T21:24:42.460Z,3.50
2019-05-26T21:27:15.580Z,2.83
2019-05-26T21:29:47.670Z,2.83
2019-05-26T21:32:20.766Z,2.90
2019-05-26T21:34:54.309Z,3.10
2019-05-26T21:37:28.002Z,3.37
2019-05-26T21:40:00.355Z,3.30
2019-05-26T21:42:33.789Z,3.37
2019-05-26T21:45:07.092Z,2.87
2019-05-26T21:50:11.043Z,2.22
2019-05-26T21:52:45.797Z,2.87
2019-05-26T21:55:18.478Z,3.40
2019-05-26T21:57:50.797Z,2.77
2019-05-26T22:00:29.089Z,2.30
2019-05-26T22:03:02.032Z,2.40
2019-05-26T22:05:35.466Z,2.47
2019-05-26T22:08:08.469Z,2.77
2019-05-26T22:10:41.771Z,2.67
2019-05-26T22:13:15.521Z,2.67
2019-05-26T22:15:47.895Z,2.77
2019-05-26T22:18:20.760Z,2.72
2019-05-26T22:20:53.124Z,3.20
2019-05-26T22:23:25.825Z,2.90
2019-05-26T22:25:58.044Z,2.27
2019-05-26T22:28:29.872Z,2.43
2019-05-26T22:31:02.597Z,2.77
2019-05-26T22:33:35.391Z,2.55
2019-05-26T22:36:07.470Z,3.08
2019-05-26T22:38:40.423Z,2.72
2019-05-26T22:41:13.047Z,3.02
2019-05-26T22:43:45.880Z,3.30
2019-05-26T22:46:18.357Z,3.27
2019-05-26T22:48:50.451Z,3.25
2019-05-26T22:51:23.865Z,3.47
2019-05-26T22:56:26.564Z,3.27
2019-05-26T22:58:59.029Z,3.50
2019-05-26T23:01:31.126Z,4.05
2019-05-26T23:04:03.790Z,3.20
2019-05-26T23:06:36.231Z,3.80
2019-05-26T23:09:08.700Z,3.95
2019-05-26T23:11:41.098Z,3.80
2019-05-26T23:14:13.509Z,3.67
2019-05-26T23:16:46.563Z,3.20
2019-05-26T23:21:51.613Z,3.37
2019-05-26T23:24:24.599Z,3.90
2019-05-26T23:26:56.673Z,3.60
2019-05-26T23:29:29.547Z,4.05
2019-05-26T23:32:02.524Z,3.72
2019-05-26T23:37:06.551Z,3.27
2019-05-26T23:39:40.353Z,3.80
2019-05-26T23:42:13.237Z,4.03
2019-05-26T23:44:46.019Z,4.10
2019-05-26T23:47:18.471Z,4.15
2019-05-26T23:49:50.929Z,4.15
2019-05-26T23:52:23.409Z,3.92
2019-05-26T23:54:56.123Z,3.40
2019-05-26T23:57:28.456Z,4.53
